MV Causeway Supplier — ZR2426 — position and weather

sailwx.info

Track history (hours):
 
Tides and Currents Weather Stations Pressure Air Temp Water Temp Dewpoint Dewpoint Depression Visibility Wind Speed Wind Dir Waves Ship Positions

MV Causeway Supplier

Last reported at 2014-Oct-01 13:25 UTC. Time now 2014-Oct-26 02:56 UTC.
Position S 29°54' E 031°00'.
Warning: this ship's position is 24 days out of date.

Length 22 m; draft 2.7 m.

Type: . MMSI: 601041200.

Date/timePositionNaut miles runAvg speedWind from/ knotsBaromVisibWave heightAir tempDewpointWater temp
2014-Oct-01 13:25S 29°54' E 031°00'4 4.9
2014-Oct-01 12:33S 29°51' E 031°04'6 5.8
2014-Oct-01 11:33S 29°48' E 031°10'2 2.1
2014-Oct-01 10:33S 29°50' E 031°10'2 2.4
2014-Oct-01 09:32S 29°51' E 031°08'6 6.1
2014-Oct-01 08:34S 29°52' E 031°01'2 2.0
2014-Oct-01 07:34S 29°54' E 031°00'0 0.0
2014-Oct-01 06:29S 29°54' E 031°00'0 0.0
2014-Oct-01 05:29S 29°54' E 031°00'2 0.1
2014-Sep-30 09:33S 29°52' E 031°01'6 5.5
2014-Sep-30 08:33S 29°53' E 031°07'1 1.3
2014-Sep-30 07:34S 29°53' E 031°09'2 1.9
2014-Sep-30 06:34S 29°51' E 031°08'8 7.3
2014-Sep-30 05:31S 29°54' E 031°00'4 0.2
2014-Sep-29 13:33S 29°53' E 031°04'3 1.0
2014-Sep-29 10:33S 29°55' E 031°05'4 3.9
2014-Sep-29 09:33S 29°52' E 031°04'4 2.9
2014-Sep-29 08:15S 29°54' E 031°00'0 0.0
2014-Sep-29 07:29S 29°54' E 031°00'0 0.0
2014-Sep-29 06:33S 29°54' E 031°00'0 0.0
2014-Sep-29 05:33S 29°54' E 031°00'4 0.1
2014-Sep-27 23:33S 29°52' E 031°04'6 6.0
2014-Sep-27 22:33S 29°51' E 031°11'4 3.8
2014-Sep-27 21:33S 29°52' E 031°07'6 5.8
2014-Sep-27 20:32S 29°54' E 031°00'1 0.2
2014-Sep-27 13:24S 29°53' E 031°00'6 7.0
2014-Sep-27 12:33S 29°51' E 031°07'2 2.2
2014-Sep-27 11:33S 29°51' E 031°09'4 4.0
2014-Sep-27 10:33S 29°50' E 031°14'1 0.7
2014-Sep-27 09:29S 29°51' E 031°15'3 2.9
2014-Sep-27 08:33S 29°52' E 031°12'6 5.9
2014-Sep-27 07:33S 29°52' E 031°05'5 4.2
2014-Sep-27 06:28S 29°54' E 031°00'0 0.0
2014-Sep-27 05:31S 29°54' E 031°00'0 0.0
2014-Sep-27 04:33S 29°54' E 031°00'0 0.0
2014-Sep-26 14:12S 29°54' E 031°00'3 4.9
2014-Sep-26 13:33S 29°52' E 031°03'8 7.9
2014-Sep-26 12:32S 29°54' E 031°12'1 1.5
2014-Sep-26 11:30S 29°54' E 031°14'2 1.9
2014-Sep-26 10:33S 29°53' E 031°13'4 4.3
2014-Sep-26 09:33S 29°51' E 031°08'7 7.1
2014-Sep-26 08:33S 29°53' E 031°00'1 0.9
2014-Sep-26 07:13S 29°54' E 031°00'0 0.0
2014-Sep-26 06:32S 29°54' E 031°00'2 2.1
2014-Sep-26 05:32S 29°52' E 031°01'8 8.1
2014-Sep-26 04:33S 29°51' E 031°10'2 1.7
2014-Sep-26 03:33S 29°51' E 031°12'0 0.3
2014-Sep-26 02:33S 29°52' E 031°12'0 0.3
2014-Sep-26 01:33S 29°52' E 031°12'0 0.4
2014-Sep-26 00:34S 29°52' E 031°12'8 8.3
2014-Sep-25 23:33S 29°53' E 031°02'2 2.3
2014-Sep-25 22:33S 29°54' E 031°00'0 0.0
2014-Sep-25 21:30S 29°54' E 031°00'0 0.0
2014-Sep-25 20:32S 29°54' E 031°00'0 0.0
2014-Sep-25 16:03S 29°54' E 031°00'2 4.4
2014-Sep-25 15:32S 29°52' E 031°02'4 4.3
2014-Sep-25 14:33S 29°52' E 031°07'2 1.9
2014-Sep-25 13:33S 29°52' E 031°05'4 4.3
2014-Sep-25 12:30S 29°54' E 031°00'0 0.0
2014-Sep-25 11:31S 29°54' E 031°00'0 0.0
2014-Sep-25 10:19S 29°54' E 031°00'0 0.0
2014-Sep-25 09:30S 29°54' E 031°00'0 0.0
2014-Sep-25 08:33S 29°54' E 031°00'0 0.0
2014-Sep-25 07:31S 29°54' E 031°00'0 0.0
2014-Sep-25 06:33S 29°54' E 031°00'0 0.0
2014-Sep-25 05:31S 29°54' E 031°00'0 0.0
2014-Sep-25 04:33S 29°54' E 031°00'  
2014-Sep-22 16:11S 29°53' E 031°02'0 0.1
2014-Sep-22 15:33S 29°53' E 031°02'2 1.9
2014-Sep-22 14:31S 29°54' E 031°00'0 0.1
2014-Sep-22 12:28S 29°54' E 031°00'0 0.0
2014-Sep-22 11:32S 29°54' E 031°00'0 0.0
2014-Sep-22 10:30S 29°54' E 031°00'0 0.0
2014-Sep-22 09:32S 29°54' E 031°00'0 0.0
2014-Sep-22 08:26S 29°54' E 031°00'  
Track history (hours):
 
Tides and Currents Weather Stations Pressure Air Temp Water Temp Dewpoint Dewpoint Depression Visibility Wind Speed Wind Dir Waves Ship Positions

MV Causeway Supplier

Last reported at 2014-Oct-01 13:25 UTC. Time now 2014-Oct-26 02:56 UTC.
Position S 29°54' E 031°00'.
Warning: this ship's position is 24 days out of date.

Length 22 m; draft 2.7 m.

Type: . MMSI: 601041200.

Date/timePositionNaut miles runAvg speedWind from/ knotsBaromVisibWave heightAir tempDewpointWater temp
2014-Oct-01 13:25S 29°54' E 031°00'4 4.9
2014-Oct-01 12:33S 29°51' E 031°04'6 5.8
2014-Oct-01 11:33S 29°48' E 031°10'2 2.1
2014-Oct-01 10:33S 29°50' E 031°10'2 2.4
2014-Oct-01 09:32S 29°51' E 031°08'6 6.1
2014-Oct-01 08:34S 29°52' E 031°01'2 2.0
2014-Oct-01 07:34S 29°54' E 031°00'0 0.0
2014-Oct-01 06:29S 29°54' E 031°00'0 0.0
2014-Oct-01 05:29S 29°54' E 031°00'2 0.1
2014-Sep-30 09:33S 29°52' E 031°01'6 5.5
2014-Sep-30 08:33S 29°53' E 031°07'1 1.3
2014-Sep-30 07:34S 29°53' E 031°09'2 1.9
2014-Sep-30 06:34S 29°51' E 031°08'8 7.3
2014-Sep-30 05:31S 29°54' E 031°00'4 0.2
2014-Sep-29 13:33S 29°53' E 031°04'3 1.0
2014-Sep-29 10:33S 29°55' E 031°05'4 3.9
2014-Sep-29 09:33S 29°52' E 031°04'4 2.9
2014-Sep-29 08:15S 29°54' E 031°00'0 0.0
2014-Sep-29 07:29S 29°54' E 031°00'0 0.0
2014-Sep-29 06:33S 29°54' E 031°00'0 0.0
2014-Sep-29 05:33S 29°54' E 031°00'4 0.1
2014-Sep-27 23:33S 29°52' E 031°04'6 6.0
2014-Sep-27 22:33S 29°51' E 031°11'4 3.8
2014-Sep-27 21:33S 29°52' E 031°07'6 5.8
2014-Sep-27 20:32S 29°54' E 031°00'1 0.2
2014-Sep-27 13:24S 29°53' E 031°00'6 7.0
2014-Sep-27 12:33S 29°51' E 031°07'2 2.2
2014-Sep-27 11:33S 29°51' E 031°09'4 4.0
2014-Sep-27 10:33S 29°50' E 031°14'1 0.7
2014-Sep-27 09:29S 29°51' E 031°15'3 2.9
2014-Sep-27 08:33S 29°52' E 031°12'6 5.9
2014-Sep-27 07:33S 29°52' E 031°05'5 4.2
2014-Sep-27 06:28S 29°54' E 031°00'0 0.0
2014-Sep-27 05:31S 29°54' E 031°00'0 0.0
2014-Sep-27 04:33S 29°54' E 031°00'0 0.0
2014-Sep-26 14:12S 29°54' E 031°00'3 4.9
2014-Sep-26 13:33S 29°52' E 031°03'8 7.9
2014-Sep-26 12:32S 29°54' E 031°12'1 1.5
2014-Sep-26 11:30S 29°54' E 031°14'2 1.9
2014-Sep-26 10:33S 29°53' E 031°13'4 4.3
2014-Sep-26 09:33S 29°51' E 031°08'7 7.1
2014-Sep-26 08:33S 29°53' E 031°00'1 0.9
2014-Sep-26 07:13S 29°54' E 031°00'0 0.0
2014-Sep-26 06:32S 29°54' E 031°00'2 2.1
2014-Sep-26 05:32S 29°52' E 031°01'8 8.1
2014-Sep-26 04:33S 29°51' E 031°10'2 1.7
2014-Sep-26 03:33S 29°51' E 031°12'0 0.3
2014-Sep-26 02:33S 29°52' E 031°12'0 0.3
2014-Sep-26 01:33S 29°52' E 031°12'0 0.4
2014-Sep-26 00:34S 29°52' E 031°12'8 8.3
2014-Sep-25 23:33S 29°53' E 031°02'2 2.3
2014-Sep-25 22:33S 29°54' E 031°00'0 0.0
2014-Sep-25 21:30S 29°54' E 031°00'0 0.0
2014-Sep-25 20:32S 29°54' E 031°00'0 0.0
2014-Sep-25 16:03S 29°54' E 031°00'2 4.4
2014-Sep-25 15:32S 29°52' E 031°02'4 4.3
2014-Sep-25 14:33S 29°52' E 031°07'2 1.9
2014-Sep-25 13:33S 29°52' E 031°05'4 4.3
2014-Sep-25 12:30S 29°54' E 031°00'0 0.0
2014-Sep-25 11:31S 29°54' E 031°00'0 0.0
2014-Sep-25 10:19S 29°54' E 031°00'0 0.0
2014-Sep-25 09:30S 29°54' E 031°00'0 0.0
2014-Sep-25 08:33S 29°54' E 031°00'0 0.0
2014-Sep-25 07:31S 29°54' E 031°00'0 0.0
2014-Sep-25 06:33S 29°54' E 031°00'0 0.0
2014-Sep-25 05:31S 29°54' E 031°00'0 0.0
2014-Sep-25 04:33S 29°54' E 031°00'  
2014-Sep-22 16:11S 29°53' E 031°02'0 0.1
2014-Sep-22 15:33S 29°53' E 031°02'2 1.9
2014-Sep-22 14:31S 29°54' E 031°00'0 0.1
2014-Sep-22 12:28S 29°54' E 031°00'0 0.0
2014-Sep-22 11:32S 29°54' E 031°00'0 0.0
2014-Sep-22 10:30S 29°54' E 031°00'0 0.0
2014-Sep-22 09:32S 29°54' E 031°00'0 0.0
2014-Sep-22 08:26S 29°54' E 031°00'  

Dump ship's entire track history